Time;durP1;ratioP1;P1;durP2;ratioP2;P2;SDS_P1;SDS_P2;PMS_P1;PMS_P2;Temp;Humidity;BMP_temperature;BMP_pressure;BME280_temperature;BME280_humidity;BME280_pressure;Samples;Min_cycle;Max_cycle;Signal;HPM_P1;HPM_P2
2021/03/14 00:00:07;;;;;;;;;;;10.50;99.90;;;9.99;80.58;101715.84;5072664;28;20377;-63
2021/03/14 00:02:34;;;;;;;;;;;10.50;99.90;;;10.00;80.61;101718.28;5072724;28;19924;-63
2021/03/14 00:05:01;;;;;;;;;;;10.50;99.90;;;10.03;80.51;101714.25;5073356;28;19979;-63
2021/03/14 00:07:29;;;;;;;;;;;10.50;99.90;;;10.00;80.43;101707.47;5073069;28;19924;-63
2021/03/14 00:09:56;;;;;;;;;;;10.50;99.90;;;10.02;80.55;101715.31;5072737;28;19929;-63
2021/03/14 00:12:24;;;;;;;;;;;10.50;99.90;;;10.03;80.21;101719.66;5072664;28;19929;-63
2021/03/14 00:14:52;;;;;;;;;;;10.50;99.90;;;10.03;80.20;101719.66;5072897;28;19924;-63
2021/03/14 00:17:19;;;;;;;;;;;10.50;99.90;;;9.99;80.36;101715.84;5073056;28;19971;-63
2021/03/14 00:19:46;;;;;;;;;;;10.50;99.90;;;9.87;81.14;101719.59;5072392;28;19924;-63
2021/03/14 00:22:14;;;;;;;;;;;10.40;99.90;;;9.79;81.45;101719.25;5072645;28;20271;-63
2021/03/14 00:24:41;;;;;;;;;;;10.30;99.90;;;9.67;82.06;101718.66;5072828;28;20352;-63
2021/03/14 00:27:09;;;;;;;;;;;10.30;99.90;;;9.63;82.38;101715.69;5073246;28;19928;-63
2021/03/14 00:29:37;;;;;;;;;;;10.20;99.90;;;9.62;82.65;101716.75;5073336;28;20934;-62
2021/03/14 00:32:05;;;;;;;;;;;10.10;99.90;;;9.59;82.88;101719.97;5073205;28;20332;-63
2021/03/14 00:34:32;;;;;;;;;;;10.10;99.90;;;9.61;83.30;101720.53;5073638;28;20262;-62
2021/03/14 00:37:00;;;;;;;;;;;;;;;9.61;83.22;101717.81;5072880;28;19924;-65
2021/03/14 00:39:27;;;;;;;;;;;;;;;9.62;83.22;101718.63;5072423;28;20397;-65
2021/03/14 00:41:54;;;;;;;;;;;10.10;99.90;;;9.60;83.46;101724.31;5072656;28;19932;-65
2021/03/14 00:44:21;;;;;;;;;;;10.10;99.90;;;9.56;83.85;101722.38;5073515;28;19933;-63
2021/03/14 00:46:49;;;;;;;;;;;10.00;99.90;;;9.57;83.85;101718.63;5072606;28;19929;-63
2021/03/14 00:49:18;;;;;;;;;;;10.00;99.90;;;9.58;83.62;101715.66;5072312;28;19997;-63
2021/03/14 00:51:45;;;;;;;;;;;10.10;99.90;;;9.52;84.36;101714.00;5072441;28;20019;-63
2021/03/14 00:54:13;;;;;;;;;;;10.00;99.90;;;9.43;84.53;101707.44;5073621;28;20263;-63
2021/03/14 00:56:40;;;;;;;;;;;10.00;99.90;;;9.43;84.89;101712.84;5072491;28;19931;-62
2021/03/14 00:59:07;;;;;;;;;;;9.90;99.90;;;9.40;85.21;101707.16;5072627;28;19931;-65
2021/03/14 01:01:35;;;;;;;;;;;9.90;99.90;;;9.33;85.67;101697.41;5072713;28;19925;-65
2021/03/14 01:04:03;;;;;;;;;;;9.90;99.90;;;9.33;86.13;101696.59;5072520;28;19924;-64
2021/03/14 01:06:31;;;;;;;;;;;9.80;99.90;;;9.28;86.30;101700.06;5073218;28;19972;-64
2021/03/14 01:08:58;;;;;;;;;;;9.80;99.90;;;9.18;87.32;101715.41;5072363;28;19933;-65
2021/03/14 01:11:26;;;;;;;;;;;9.80;99.90;;;9.14;87.29;101709.69;5072365;28;19924;-64
2021/03/14 01:13:54;;;;;;;;;;;9.70;99.90;;;9.16;87.48;101712.94;5072376;28;20397;-65
2021/03/14 01:16:21;;;;;;;;;;;9.70;99.90;;;9.15;88.05;101710.50;5073001;28;19982;-64
2021/03/14 01:18:48;;;;;;;;;;;9.70;99.90;;;9.18;88.05;101704.59;5072680;28;19928;-64
2021/03/14 01:21:17;;;;;;;;;;;9.70;99.90;;;9.20;87.73;101703.25;5071667;28;19928;-65
2021/03/14 01:23:44;;;;;;;;;;;9.70;99.90;;;9.22;87.72;101708.38;5073858;28;19932;-63
2021/03/14 01:26:11;;;;;;;;;;;9.70;99.90;;;9.24;87.36;101706.25;5075974;28;20373;-63
2021/03/14 01:28:38;;;;;;;;;;;9.70;99.90;;;9.25;87.67;101707.88;5075539;28;19928;-63
2021/03/14 01:31:05;;;;;;;;;;;9.80;99.90;;;9.23;87.35;101699.22;5075926;28;19925;-63
2021/03/14 01:33:33;;;;;;;;;;;9.80;99.90;;;9.23;87.50;101700.06;5076137;28;19925;-63
2021/03/14 01:36:00;;;;;;;;;;;9.70;99.90;;;9.22;87.68;101701.09;5075542;28;19995;-63
2021/03/14 01:38:28;;;;;;;;;;;9.70;99.90;;;9.20;87.82;101695.16;5075252;28;19924;-63
2021/03/14 01:40:55;;;;;;;;;;;9.70;99.90;;;9.11;88.30;101691.31;5075372;28;19951;-63
2021/03/14 01:43:23;;;;;;;;;;;9.60;99.90;;;9.05;88.73;101688.84;5075669;28;20300;-63
2021/03/14 01:45:50;;;;;;;;;;;9.60;99.90;;;9.06;88.81;101685.09;5075490;28;20285;-63
2021/03/14 01:48:21;;;;;;;;;;;9.60;99.90;;;9.06;89.06;101682.38;5075329;28;19931;-63
2021/03/14 01:50:48;;;;;;;;;;;9.60;99.90;;;9.06;88.98;101680.47;5075189;28;19924;-63
2021/03/14 01:53:16;;;;;;;;;;;9.60;99.90;;;9.01;89.12;101679.63;5075342;28;19925;-63
2021/03/14 01:55:44;;;;;;;;;;;9.60;99.90;;;8.96;89.23;101672.31;5075520;28;19974;-63
2021/03/14 01:58:12;;;;;;;;;;;9.50;99.90;;;8.93;89.13;101674.72;5075075;28;20599;-63
2021/03/14 02:00:40;;;;;;;;;;;9.50;99.90;;;8.87;89.98;101665.78;5074871;28;19966;-63
2021/03/14 02:03:08;;;;;;;;;;;9.40;99.90;;;8.85;89.67;101667.09;5075291;28;20424;-63
2021/03/14 02:05:35;;;;;;;;;;;9.40;99.90;;;8.82;90.42;101663.03;5075215;28;19924;-63
2021/03/14 02:08:02;;;;;;;;;;;9.40;99.90;;;8.83;89.94;101667.34;5074930;28;19924;-63
2021/03/14 02:10:32;;;;;;;;;;;9.30;99.90;;;8.86;89.62;101664.16;5074520;28;19970;-63
2021/03/14 02:13:07;;;;;;;;;;;9.40;99.90;;;8.79;90.68;101655.44;5075742;28;20286;-63
2021/03/14 02:15:36;;;;;;;;;;;9.30;99.90;;;8.72;90.89;101658.34;5075152;28;19925;-63
2021/03/14 02:18:05;;;;;;;;;;;9.30;99.90;;;8.76;90.74;101656.78;5075494;28;19931;-63
2021/03/14 02:20:34;;;;;;;;;;;9.30;99.90;;;8.75;90.52;101655.16;5075327;28;19924;-63
2021/03/14 02:23:13;;;;;;;;;;;9.30;99.90;;;8.65;90.63;101652.38;5075325;28;19928;-63
2021/03/14 02:25:45;;;;;;;;;;;9.20;99.90;;;8.56;91.58;101653.91;5075674;28;19935;-63
2021/03/14 02:28:14;;;;;;;;;;;9.10;99.90;;;8.53;92.40;101648.22;5075060;28;20378;-63
2021/03/14 02:30:43;;;;;;;;;;;9.10;99.90;;;8.57;91.80;101650.13;5074545;28;19929;-63
2021/03/14 02:33:12;;;;;;;;;;;9.10;99.90;;;8.55;92.08;101641.50;5075572;28;20362;-63
2021/03/14 02:35:40;;;;;;;;;;;9.10;99.90;;;8.50;92.45;101641.47;5074162;28;20325;-63
2021/03/14 02:38:08;;;;;;;;;;;9.00;99.90;;;8.44;92.58;101639.78;5074456;28;20061;-63
2021/03/14 02:40:35;;;;;;;;;;;9.00;99.90;;;8.39;93.15;101647.81;5074118;28;19925;-63
2021/03/14 02:43:04;;;;;;;;;;;;;;;8.37;93.40;101643.75;5074951;28;19924;-63
2021/03/14 02:45:32;;;;;;;;;;;8.90;99.90;;;8.36;94.27;101639.44;5074670;28;19971;-63
2021/03/14 02:48:01;;;;;;;;;;;8.90;99.90;;;8.33;94.51;101629.97;5073697;28;19928;-63
2021/03/14 02:50:29;;;;;;;;;;;8.90;99.90;;;8.33;94.44;101631.88;5074540;28;19931;-63
2021/03/14 02:52:57;;;;;;;;;;;8.90;99.90;;;8.34;94.69;101628.91;5074875;28;19928;-63
2021/03/14 02:55:24;;;;;;;;;;;8.90;99.90;;;8.36;94.78;101632.16;5075006;28;19928;-63
2021/03/14 02:57:52;;;;;;;;;;;8.90;99.90;;;8.35;94.44;101630.53;5074330;28;20377;-63
2021/03/14 03:00:22;;;;;;;;;;;8.90;99.90;;;8.36;94.45;101620.59;5074231;28;19931;-63
2021/03/14 03:02:53;;;;;;;;;;;8.90;99.90;;;8.33;95.03;101619.19;5075057;28;19925;-63
2021/03/14 03:05:22;;;;;;;;;;;8.90;99.90;;;8.36;94.71;101625.97;5074262;28;19993;-63
2021/03/14 03:07:50;;;;;;;;;;;8.90;99.90;;;8.37;94.69;101616.81;5074619;28;20397;-63
2021/03/14 03:10:18;;;;;;;;;;;8.90;99.90;;;8.36;94.48;101618.66;5073806;28;19929;-63
2021/03/14 03:12:46;;;;;;;;;;;8.90;99.90;;;8.35;95.17;101616.25;5074247;28;19932;-63
2021/03/14 03:15:15;;;;;;;;;;;8.90;99.90;;;8.36;94.67;101615.97;5074448;28;19931;-63
2021/03/14 03:17:43;;;;;;;;;;;8.90;99.90;;;8.39;94.57;101615.47;5073623;28;19971;-63
2021/03/14 03:20:13;;;;;;;;;;;8.90;99.90;;;8.37;94.49;101614.09;5073261;28;20378;-63
2021/03/14 03:22:40;;;;;;;;;;;8.90;99.90;;;8.39;94.22;101614.69;5073636;28;19935;-63
2021/03/14 03:25:08;;;;;;;;;;;8.90;99.90;;;8.36;93.99;101615.97;5073965;28;19935;-63
2021/03/14 03:27:36;;;;;;;;;;;8.90;99.90;;;8.32;94.83;101617.59;5073235;28;20355;-63
2021/03/14 03:30:05;;;;;;;;;;;8.80;99.90;;;8.27;94.82;101617.47;5074103;28;19925;-63
2021/03/14 03:32:33;;;;;;;;;;;8.80;99.90;;;8.27;94.62;101608.59;5074332;28;20351;-63
2021/03/14 03:35:00;;;;;;;;;;;8.80;99.90;;;8.24;94.96;101605.34;5073896;28;19924;-63
2021/03/14 03:37:28;;;;;;;;;;;8.80;99.90;;;8.23;94.96;101616.38;5073468;28;19924;-63
2021/03/14 03:39:56;;;;;;;;;;;8.80;99.90;;;8.18;95.44;101608.22;5073442;28;19947;-63
2021/03/14 03:42:26;;;;;;;;;;;8.70;99.90;;;8.16;95.86;101605.00;5074066;28;19931;-63
2021/03/14 03:44:54;;;;;;;;;;;8.70;99.90;;;8.15;95.65;101608.75;5073925;28;19928;-63
2021/03/14 03:47:22;;;;;;;;;;;8.70;99.90;;;8.13;95.68;101602.81;5072920;28;19928;-63
2021/03/14 03:49:50;;;;;;;;;;;8.70;99.90;;;8.14;95.75;101604.44;5073031;28;19925;-63
2021/03/14 03:52:18;;;;;;;;;;;8.70;99.90;;;8.10;96.42;101608.69;5072876;28;19972;-63
2021/03/14 03:54:47;;;;;;;;;;;8.70;99.90;;;8.10;95.62;101609.50;5073588;28;19928;-63
2021/03/14 03:57:16;;;;;;;;;;;8.70;99.90;;;8.11;96.37;101610.34;5073024;28;19925;-63
2021/03/14 03:59:44;;;;;;;;;;;8.70;99.90;;;8.15;96.29;101609.56;5072849;28;19928;-63
2021/03/14 04:02:12;;;;;;;;;;;8.70;99.90;;;8.19;96.23;101605.28;5073013;28;20382;-63
2021/03/14 04:04:40;;;;;;;;;;;8.70;99.90;;;8.24;95.82;101607.22;5073227;28;19967;-63
2021/03/14 04:07:09;;;;;;;;;;;8.70;99.90;;;8.24;95.65;101608.03;5072837;28;19931;-63
2021/03/14 04:09:37;;;;;;;;;;;8.70;99.90;;;8.24;95.69;101604.50;5072627;28;19928;-63
2021/03/14 04:12:07;;;;;;;;;;;8.80;99.90;;;8.24;95.79;101596.44;5072957;28;19932;-63
2021/03/14 04:14:34;;;;;;;;;;;8.70;99.90;;;8.22;95.74;101595.88;5073106;28;19977;-63
2021/03/14 04:17:03;;;;;;;;;;;8.70;99.90;;;8.19;95.61;101604.47;5072466;28;19924;-63
2021/03/14 04:19:34;;;;;;;;;;;8.70;99.90;;;8.19;95.50;101602.59;5072308;28;19924;-63
2021/03/14 04:22:02;;;;;;;;;;;8.70;99.90;;;8.23;95.56;101606.44;5072268;28;20015;-63
2021/03/14 04:24:30;;;;;;;;;;;8.70;99.90;;;8.20;95.55;101612.31;5073085;28;19925;-63
2021/03/14 04:26:59;;;;;;;;;;;8.70;99.90;;;8.19;95.85;101610.69;5072299;28;20396;-63
2021/03/14 04:29:28;;;;;;;;;;;8.70;99.90;;;8.19;95.72;101617.94;5072514;28;19924;-63
2021/03/14 04:31:56;;;;;;;;;;;8.70;99.90;;;8.19;95.95;101620.66;5072687;28;19925;-63
2021/03/14 04:34:25;;;;;;;;;;;8.70;99.90;;;8.17;95.73;101610.13;5072808;28;20363;-63
2021/03/14 04:36:53;;;;;;;;;;;8.70;99.90;;;8.17;95.96;101618.22;5072352;28;19924;-63
2021/03/14 04:39:21;;;;;;;;;;;8.70;99.90;;;8.13;95.75;101616.28;5072200;28;19924;-63
2021/03/14 04:41:48;;;;;;;;;;;8.60;99.90;;;8.02;95.96;101620.75;5072207;28;19924;-63
2021/03/14 04:44:16;;;;;;;;;;;8.60;99.90;;;7.92;96.75;101617.13;5072938;28;19925;-63
2021/03/14 04:46:45;;;;;;;;;;;8.50;99.90;;;7.89;96.66;101615.75;5071934;28;19924;-63
2021/03/14 04:49:14;;;;;;;;;;;8.40;99.90;;;7.86;97.36;101616.25;5073007;28;19929;-63
2021/03/14 04:51:44;;;;;;;;;;;8.40;99.90;;;7.85;96.80;101617.31;5072218;28;19924;-63
2021/03/14 04:54:12;;;;;;;;;;;8.40;99.90;;;7.76;96.83;101615.31;5072673;28;19925;-63
2021/03/14 04:56:41;;;;;;;;;;;8.30;99.90;;;7.66;97.58;101616.81;5072119;28;19925;-63
2021/03/14 04:59:10;;;;;;;;;;;8.30;99.90;;;7.61;98.33;101624.03;5074173;28;19962;-63
2021/03/14 05:01:39;;;;;;;;;;;8.20;99.90;;;7.55;98.60;101623.16;5076185;28;19925;-63
2021/03/14 05:04:11;;;;;;;;;;;8.20;99.90;;;7.56;99.28;101623.97;5076715;28;19955;-63
2021/03/14 05:06:43;;;;;;;;;;;8.10;99.90;;;7.56;99.04;101622.09;5076744;28;19928;-63
2021/03/14 05:09:13;;;;;;;;;;;8.10;99.90;;;7.53;98.99;101625.28;5076396;28;19975;-63
2021/03/14 05:11:41;;;;;;;;;;;8.10;99.90;;;7.47;99.14;101623.59;5076413;28;20254;-63
2021/03/14 05:14:10;;;;;;;;;;;8.10;99.90;;;7.47;99.27;101628.97;5077181;28;19924;-63
2021/03/14 05:16:38;;;;;;;;;;;8.00;99.90;;;7.50;99.54;101628.47;5077135;28;19925;-63
2021/03/14 05:19:05;;;;;;;;;;;8.00;99.90;;;7.46;100.00;101635.41;5076506;28;19932;-63
2021/03/14 05:21:34;;;;;;;;;;;8.00;99.90;;;7.45;100.00;101646.41;5076009;28;19925;-63
2021/03/14 05:24:01;;;;;;;;;;;;;;;7.42;100.00;101641.53;5076332;28;19924;-63
2021/03/14 05:26:29;;;;;;;;;;;8.00;99.90;;;7.38;99.88;101643.09;5076906;28;19924;-63
2021/03/14 05:28:58;;;;;;;;;;;7.90;99.90;;;7.35;100.00;101643.59;5075994;28;19929;-63
2021/03/14 05:31:33;;;;;;;;;;;7.90;99.90;;;7.32;100.00;101655.69;5075520;28;20014;-63
2021/03/14 05:34:03;;;;;;;;;;;7.90;99.90;;;7.27;100.00;101650.22;5076420;28;19929;-63
2021/03/14 05:36:31;;;;;;;;;;;7.80;99.90;;;7.27;100.00;101650.22;5076135;28;19946;-64
2021/03/14 05:39:01;;;;;;;;;;;7.80;99.90;;;7.25;100.00;101657.72;5076441;28;19935;-64
2021/03/14 05:41:29;;;;;;;;;;;;;;;7.31;100.00;101658.59;5076245;28;19924;-64
2021/03/14 05:43:56;;;;;;;;;;;7.80;99.90;;;7.40;100.00;101655.25;5076264;28;19952;-63
2021/03/14 05:46:24;;;;;;;;;;;7.90;99.90;;;7.46;100.00;101648.88;5076264;28;19933;-64
2021/03/14 05:48:51;;;;;;;;;;;8.00;99.90;;;7.45;100.00;101657.19;5075824;28;19924;-63
2021/03/14 05:51:23;;;;;;;;;;;8.00;99.90;;;7.48;100.00;101664.75;5075452;28;19924;-64
2021/03/14 05:53:54;;;;;;;;;;;8.00;99.90;;;7.49;100.00;101664.53;5076149;28;19924;-64
2021/03/14 05:56:24;;;;;;;;;;;8.00;99.90;;;7.51;100.00;101659.69;5076106;28;19979;-63
2021/03/14 05:58:53;;;;;;;;;;;8.00;99.90;;;7.47;100.00;101663.97;5075105;28;19924;-63
2021/03/14 06:01:24;;;;;;;;;;;8.00;99.90;;;7.49;100.00;101647.56;5075000;28;19993;-63
2021/03/14 06:03:51;;;;;;;;;;;8.00;99.90;;;7.50;100.00;101655.41;5075492;28;19924;-63
2021/03/14 06:06:18;;;;;;;;;;;8.00;99.90;;;7.47;99.88;101665.84;5075259;28;19925;-63
2021/03/14 06:08:46;;;;;;;;;;;8.00;99.90;;;7.42;99.91;101653.09;5075153;28;19925;-63
2021/03/14 06:11:13;;;;;;;;;;;8.00;99.90;;;7.39;100.00;101652.78;5074798;28;19947;-63
2021/03/14 06:13:42;;;;;;;;;;;8.00;99.90;;;7.31;100.00;101651.34;5076088;28;20392;-63
2021/03/14 06:16:09;;;;;;;;;;;7.90;99.90;;;7.25;100.00;101655.03;5075712;28;20519;-63
2021/03/14 06:18:37;;;;;;;;;;;7.80;99.90;;;7.22;100.00;101654.72;5075488;28;19935;-63
2021/03/14 06:21:06;;;;;;;;;;;7.80;99.90;;;7.15;100.00;101655.69;5074504;28;19924;-63
2021/03/14 06:23:34;;;;;;;;;;;7.70;99.90;;;7.15;100.00;101649.50;5075129;28;20435;-63
2021/03/14 06:26:13;;;;;;;;;;;7.70;99.90;;;7.15;100.00;101655.69;5075582;28;20368;-63
2021/03/14 06:28:42;;;;;;;;;;;7.70;99.90;;;7.14;100.00;101653.25;5074597;28;19924;-63
2021/03/14 06:31:27;;;;;;;;;;;7.70;99.90;;;7.13;100.00;101651.63;5074188;28;20023;-63
2021/03/14 06:33:54;;;;;;;;;;;7.70;99.90;;;7.14;100.00;101651.38;5075636;28;20367;-63
2021/03/14 06:36:23;;;;;;;;;;;7.70;99.90;;;7.11;100.00;101649.16;5075489;28;19948;-63
2021/03/14 06:38:50;;;;;;;;;;;7.70;99.90;;;7.12;100.00;101652.69;5074623;28;19925;-63
2021/03/14 06:41:19;;;;;;;;;;;7.70;99.90;;;7.18;100.00;101645.50;5074222;28;19925;-63
2021/03/14 06:43:50;;;;;;;;;;;7.70;99.90;;;7.17;100.00;101643.88;5075450;28;19947;-63
2021/03/14 06:46:25;;;;;;;;;;;7.70;99.90;;;7.19;100.00;101652.50;5075958;28;20320;-63
2021/03/14 06:49:08;;;;;;;;;;;7.70;99.90;;;7.18;100.00;101649.00;5074664;28;19924;-63
2021/03/14 06:51:37;;;;;;;;;;;7.70;99.90;;;7.17;100.00;101660.84;5073971;28;19924;-63
2021/03/14 06:54:24;;;;;;;;;;;7.70;99.90;;;7.20;100.00;101651.47;5074603;28;19925;-63
2021/03/14 06:56:59;;;;;;;;;;;7.70;99.90;;;7.22;100.00;101644.75;5074251;28;19925;-63
2021/03/14 06:59:28;;;;;;;;;;;7.80;99.90;;;7.25;100.00;101644.28;5074328;28;20289;-63
2021/03/14 07:01:59;;;;;;;;;;;7.80;99.90;;;7.34;100.00;101655.41;5074302;28;19924;-63
2021/03/14 07:04:41;;;;;;;;;;;7.80;99.90;;;7.47;100.00;101655.06;5074276;28;19925;-63
2021/03/14 07:07:14;;;;;;;;;;;8.00;99.90;;;7.46;100.00;101662.31;5074347;28;19924;-63
2021/03/14 07:09:43;;;;;;;;;;;8.00;99.90;;;7.48;99.85;101657.50;5074628;28;19931;-63
2021/03/14 07:12:21;;;;;;;;;;;8.00;99.90;;;7.55;100.00;101644.69;5073982;28;19924;-63
2021/03/14 07:14:50;;;;;;;;;;;8.10;99.90;;;7.94;99.44;101660.75;5074963;28;19924;-63
2021/03/14 07:17:29;;;;;;;;;;;9.00;99.90;;;9.14;93.24;101655.72;5074088;28;19982;-63
2021/03/14 07:19:57;;;;;;;;;;;10.00;99.90;;;10.21;87.28;101655.16;5074042;28;19925;-64
2021/03/14 07:22:25;;;;;;;;;;;11.30;99.90;;;11.70;78.92;101647.50;5073442;28;19928;-63
2021/03/14 07:24:53;;;;;;;;;;;11.10;99.90;;;12.58;72.73;101651.06;5074467;28;19951;-63
2021/03/14 07:27:22;;;;;;;;;;;12.10;99.90;;;12.89;69.98;101648.91;5073644;28;19928;-64
2021/03/14 07:29:53;;;;;;;;;;;12.60;99.90;;;13.38;66.95;101648.72;5073563;28;19929;-63
2021/03/14 07:32:21;;;;;;;;;;;13.00;99.90;;;14.09;64.16;101651.41;5073875;28;19932;-63
2021/03/14 07:34:49;;;;;;;;;;;13.80;99.90;;;14.31;62.80;101653.53;5074310;28;19931;-63
2021/03/14 07:37:17;;;;;;;;;;;13.90;99.90;;;14.42;62.22;101646.88;5073749;28;19981;-64
2021/03/14 07:39:47;;;;;;;;;;;14.10;99.90;;;13.42;64.77;101657.94;5073561;28;19925;-64
2021/03/14 07:42:15;;;;;;;;;;;14.20;99.90;;;12.09;70.30;101663.84;5073272;28;19929;-63
2021/03/14 07:44:45;;;;;;;;;;;13.00;99.90;;;11.47;73.83;101662.44;5073827;28;19931;-63
2021/03/14 07:47:15;;;;;;;;;;;12.80;99.90;;;11.34;75.36;101666.53;5073203;28;19928;-63
2021/03/14 07:49:44;;;;;;;;;;;12.20;99.90;;;11.08;76.12;101677.66;5073457;28;19931;-64
2021/03/14 07:52:18;;;;;;;;;;;12.00;99.90;;;11.08;77.60;101675.78;5073526;28;20359;-63
2021/03/14 07:54:48;;;;;;;;;;;11.80;99.90;;;11.39;76.28;101671.13;5073796;28;19924;-63
2021/03/14 07:57:20;;;;;;;;;;;11.90;99.90;;;11.52;75.98;101674.06;5073309;28;19924;-63
2021/03/14 07:59:47;;;;;;;;;;;11.90;99.90;;;11.47;76.32;101674.09;5074047;28;19924;-63
2021/03/14 08:02:31;;;;;;;;;;;11.90;99.90;;;11.68;76.64;101682.16;5073274;28;19928;-63
2021/03/14 08:05:00;;;;;;;;;;;12.00;99.90;;;11.73;77.13;101680.28;5073887;28;19997;-63
2021/03/14 08:07:47;;;;;;;;;;;12.20;99.90;;;11.74;77.62;101678.34;5073040;28;20370;-63
2021/03/14 08:10:34;;;;;;;;;;;12.30;99.90;;;11.70;76.36;101680.84;5073410;28;19936;-63
2021/03/14 08:13:01;;;;;;;;;;;12.30;99.90;;;11.51;77.01;101685.19;5074474;28;19931;-63
2021/03/14 08:15:29;;;;;;;;;;;12.20;99.90;;;11.47;76.88;101693.03;5074691;28;19947;-63
2021/03/14 08:17:59;;;;;;;;;;;12.10;99.90;;;11.61;77.82;101685.13;5074252;28;19929;-63
2021/03/14 08:20:38;;;;;;;;;;;12.20;99.90;;;11.91;77.28;101695.94;5073283;28;19967;-63
2021/03/14 08:23:06;;;;;;;;;;;12.30;99.90;;;12.07;75.61;101685.81;5073966;28;19929;-63
2021/03/14 08:25:43;;;;;;;;;;;12.60;99.90;;;12.33;74.09;101703.59;5072827;28;20058;-63
2021/03/14 08:28:29;;;;;;;;;;;12.70;99.90;;;12.47;73.08;101701.06;5072795;28;19938;-63
2021/03/14 08:30:57;;;;;;;;;;;12.90;99.90;;;12.58;73.58;101700.69;5073234;28;19952;-63
2021/03/14 08:33:28;;;;;;;;;;;13.10;99.90;;;12.62;72.27;101706.38;5073209;28;19924;-63
2021/03/14 08:35:57;;;;;;;;;;;13.20;99.90;;;12.49;71.29;101705.09;5075026;28;19924;-63
2021/03/14 08:38:25;;;;;;;;;;;13.10;99.90;;;12.34;71.37;101698.97;5073642;28;19990;-62
2021/03/14 08:41:26;;;;;;;;;;;13.00;99.90;;;12.29;73.04;101707.13;5073305;28;20397;-63
2021/03/14 08:43:55;;;;;;;;;;;12.90;99.90;;;12.48;73.50;101710.81;5073787;28;19925;-63
2021/03/14 08:47:06;;;;;;;;;;;13.00;99.90;;;12.66;71.65;101710.16;5073628;28;19936;-63
2021/03/14 08:49:38;;;;;;;;;;;13.20;99.90;;;12.86;73.09;101722.75;5073966;28;19924;-63
2021/03/14 08:52:07;;;;;;;;;;;13.60;99.90;;;13.18;70.66;101716.84;5073200;28;19929;-63
2021/03/14 08:54:35;;;;;;;;;;;13.60;99.90;;;13.49;70.15;101721.72;5073791;28;19932;-63
2021/03/14 08:57:04;;;;;;;;;;;13.90;99.90;;;13.80;67.60;101710.50;5072889;28;20381;-63
2021/03/14 08:59:32;;;;;;;;;;;14.00;99.90;;;13.93;65.13;101715.22;5073408;28;19924;-63
2021/03/14 09:02:00;;;;;;;;;;;14.20;99.90;;;14.08;66.49;101718.56;5074126;28;19981;-63
2021/03/14 09:04:29;;;;;;;;;;;14.30;99.90;;;14.23;64.73;101723.00;5074035;28;19924;-63
2021/03/14 09:07:10;;;;;;;;;;;14.40;99.90;;;14.32;65.02;101723.19;5073986;28;19936;-63
2021/03/14 09:09:40;;;;;;;;;;;14.60;99.90;;;14.36;64.07;101730.50;5073236;28;19931;-63
2021/03/14 09:12:11;;;;;;;;;;;14.60;99.90;;;14.38;64.89;101727.50;5073070;28;19932;-64
2021/03/14 09:14:39;;;;;;;;;;;14.80;99.90;;;14.50;64.68;101725.16;5073281;28;19924;-63
2021/03/14 09:17:10;;;;;;;;;;;14.80;99.90;;;14.66;63.18;101724.63;5072522;28;19924;-63
2021/03/14 09:19:40;;;;;;;;;;;14.90;99.90;;;14.81;62.39;101723.56;5072506;28;20362;-63
2021/03/14 09:22:12;;;;;;;;;;;15.00;99.90;;;14.71;62.52;101721.81;5072251;28;19994;-63
2021/03/14 09:24:42;;;;;;;;;;;15.00;99.90;;;14.82;62.55;101727.09;5073090;28;19931;-63
2021/03/14 09:27:12;;;;;;;;;;;15.10;99.90;;;14.89;62.39;101727.56;5072489;28;19932;-63
2021/03/14 09:29:41;;;;;;;;;;;15.20;99.90;;;14.91;62.76;101725.34;5072509;28;19940;-63
2021/03/14 09:32:17;;;;;;;;;;;15.30;99.90;;;15.06;61.63;101725.09;5072878;28;19970;-63
2021/03/14 09:34:45;;;;;;;;;;;15.40;99.90;;;15.24;62.04;101721.50;5072549;28;19928;-63
2021/03/14 09:37:26;;;;;;;;;;;15.60;99.90;;;15.37;61.25;101720.75;5073064;28;19955;-65
2021/03/14 09:40:10;;;;;;;;;;;15.70;99.90;;;15.30;60.57;101718.41;5072713;28;19932;-63
2021/03/14 09:42:38;;;;;;;;;;;15.60;99.90;;;15.30;61.66;101718.41;5072740;28;20365;-63
2021/03/14 09:45:08;;;;;;;;;;;15.70;99.90;;;15.45;60.78;101711.84;5074176;28;19924;-63
2021/03/14 09:47:36;;;;;;;;;;;15.80;99.90;;;15.60;60.98;101713.53;5075968;28;20437;-64
2021/03/14 09:50:06;;;;;;;;;;;16.00;99.90;;;15.64;59.03;101717.28;5075972;28;19963;-63
2021/03/14 09:52:35;;;;;;;;;;;16.00;99.90;;;15.74;61.18;101714.34;5076139;28;19970;-63
2021/03/14 09:55:03;;;;;;;;;;;16.10;99.90;;;16.02;61.58;101715.16;5076102;28;20030;-63
2021/03/14 09:57:31;;;;;;;;;;;16.30;99.90;;;16.08;57.62;101722.91;5075487;28;19924;-63
2021/03/14 09:59:58;;;;;;;;;;;16.50;99.90;;;15.92;60.28;101718.91;5075918;28;19925;-64
2021/03/14 10:02:27;;;;;;;;;;;16.40;99.90;;;16.14;58.53;101718.19;5075967;28;19924;-63
2021/03/14 10:04:54;;;;;;;;;;;16.50;99.90;;;16.11;58.89;101722.31;5076842;28;19924;-63
2021/03/14 10:07:23;;;;;;;;;;;16.60;99.90;;;16.05;57.74;101720.00;5076006;28;19939;-65
2021/03/14 10:09:53;;;;;;;;;;;16.50;99.90;;;16.18;60.46;101711.78;5075746;28;20297;-63
2021/03/14 10:12:20;;;;;;;;;;;16.50;99.90;;;16.15;56.99;101717.06;5075405;28;19931;-63
2021/03/14 10:14:47;;;;;;;;;;;16.60;99.90;;;16.20;57.23;101715.00;5075028;28;20388;-65
2021/03/14 10:17:15;;;;;;;;;;;16.60;99.90;;;16.28;56.04;101711.59;5074899;28;19947;-63
2021/03/14 10:19:42;;;;;;;;;;;16.60;99.90;;;16.39;56.32;101710.25;5075032;28;19925;-63
2021/03/14 10:22:09;;;;;;;;;;;16.70;99.90;;;16.38;56.28;101721.47;5074546;28;19928;-63
2021/03/14 10:24:45;;;;;;;;;;;16.70;99.90;;;16.53;56.63;101718.41;5074184;28;20341;-63
2021/03/14 10:27:21;;;;;;;;;;;16.90;99.90;;;16.59;55.41;101719.13;5074496;28;19929;-62
2021/03/14 10:29:55;;;;;;;;;;;17.00;99.90;;;16.63;56.63;101712.72;5074767;28;19924;-63
2021/03/14 10:32:24;;;;;;;;;;;17.10;99.90;;;16.69;55.63;101713.41;5075015;28;19932;-63
2021/03/14 10:34:52;;;;;;;;;;;17.20;99.90;;;16.77;54.40;101705.31;5075250;28;19924;-64
2021/03/14 10:37:30;;;;;;;;;;;17.20;99.90;;;16.93;57.36;101708.47;5074438;28;19974;-63
2021/03/14 10:40:02;;;;;;;;;;;17.30;99.90;;;16.99;53.38;101709.16;5074908;28;19928;-64
2021/03/14 10:42:35;;;;;;;;;;;;;;;17.02;54.92;101705.81;5074589;28;19924;-63
2021/03/14 10:45:11;;;;;;;;;;;17.50;99.90;;;17.01;54.46;101705.00;5075129;28;19924;-65
2021/03/14 10:47:39;;;;;;;;;;;17.50;99.90;;;17.20;54.53;101702.06;5074167;28;20285;-63
2021/03/14 10:50:18;;;;;;;;;;;17.60;99.90;;;17.13;56.17;101698.94;5074741;28;20366;-64
2021/03/14 10:52:46;;;;;;;;;;;17.60;99.90;;;17.34;53.73;101705.50;5074935;28;19924;-63
2021/03/14 10:55:27;;;;;;;;;;;17.70;99.90;;;17.47;53.08;101708.16;5074977;28;19971;-65
2021/03/14 10:58:13;;;;;;;;;;;17.80;99.90;;;17.42;53.94;101694.59;5073692;28;19924;-63
2021/03/14 11:00:43;;;;;;;;;;;17.70;99.90;;;17.44;53.83;101688.84;5074249;28;19932;-64
2021/03/14 11:03:27;;;;;;;;;;;17.80;99.90;;;17.61;53.17;101690.88;5074455;28;19925;-63
2021/03/14 11:06:09;;;;;;;;;;;;;;;17.68;52.36;101683.81;5074705;28;19932;-64
2021/03/14 11:08:52;;;;;;;;;;;18.00;99.90;;;17.76;54.38;101684.97;5074590;28;19991;-64
2021/03/14 11:11:23;;;;;;;;;;;18.10;99.90;;;17.76;54.06;101683.03;5073611;28;20302;-65
2021/03/14 11:13:52;;;;;;;;;;;18.10;99.90;;;18.00;51.94;101679.88;5074632;28;20019;-65
2021/03/14 11:16:19;;;;;;;;;;;18.30;99.90;;;18.06;52.15;101678.59;5074370;28;19974;-64
2021/03/14 11:18:57;;;;;;;;;;;18.40;99.90;;;18.14;52.77;101677.03;5073681;28;19924;-65
2021/03/14 11:21:25;;;;;;;;;;;18.50;99.90;;;18.19;50.14;101680.41;5074069;28;19958;-64
2021/03/14 11:23:52;;;;;;;;;;;18.50;99.90;;;18.18;52.41;101678.78;5074457;28;19924;-65
2021/03/14 11:26:20;;;;;;;;;;;18.50;99.90;;;18.12;51.56;101680.06;5074737;28;20298;-64
2021/03/14 11:28:49;;;;;;;;;;;18.50;99.90;;;18.21;52.39;101671.88;5073946;28;19932;-65
2021/03/14 11:31:18;;;;;;;;;;;18.60;99.90;;;18.30;51.81;101668.00;5073219;28;19997;-63